Latest Weather Observations for Woomera

IDS60801

Issued at 8:01 pm CST Monday 24 July 2017 (issued every 30 minutes, with the page automatically refreshed every 10 minutes)

About weather observations | Map of weather stations | Latest weather observations for SA | Other Formats
Station Details ID: 016001 Name: WOOMERA AERODROME Lat: -31.16 Lon: 136.81 Height: 166.6 m
Data from the previous 72 hours. | See also: Recent months at Woomera
Date/Time
CST
Temp
°C
App
Temp
°C
Dew
Point
°C
Rel
Hum
%
Delta-T
°C
Wind Press
QNH
hPa
Press
MSL
hPa
Rain since
9am
mm
Dir  Spd
km/h
Gust
km/h
Spd
kts
Gust
kts
24/08:00pm 15.0 9.6 1.5 40 5.9 NNE 19 20 10 11 1018.9 1019.0 0.0
24/07:30pm 16.3 10.8 1.6 37 6.5 NNE 20 22 11 12 1018.9 1019.0 0.0
24/07:00pm 16.9 11.9 1.4 35 6.9 NNE 17 20 9 11 1019.0 1019.1 0.0
24/06:30pm 19.0 14.0 1.5 31 7.9 N 17 20 9 11 1019.0 1019.1 0.0
24/06:00pm 19.9 14.9 1.4 29 8.4 N 17 19 9 10 1018.8 1018.9 0.0
24/05:30pm 21.5 15.5 1.2 26 9.4 N 22 30 12 16 1018.7 1018.8 0.0
24/05:00pm 22.5 15.0 0.9 24 10.0 N 30 39 16 21 1018.5 1018.6 0.0
24/04:30pm 22.8 16.2 1.8 25 9.9 N 26 39 14 21 1018.5 1018.6 0.0
24/04:00pm 23.3 16.6 1.6 24 10.2 N 26 33 14 18 1018.5 1018.6 0.0
24/03:30pm 22.9 15.2 2.4 26 9.8 N 32 41 17 22 1018.3 1018.4 0.0
24/03:00pm 22.8 15.2 2.8 27 9.6 NNE 32 43 17 23 1018.7 1018.8 0.0
24/02:30pm 22.7 15.2 3.3 28 9.4 N 32 43 17 23 1018.8 1018.9 0.0
24/02:00pm 22.3 15.2 3.4 29 9.2 N 30 41 16 22 1019.1 1019.2 0.0
24/01:30pm 22.2 14.8 3.8 30 9.0 N 32 43 17 23 1019.9 1020.0 0.0
24/01:00pm 21.4 14.5 4.5 33 8.3 NNE 30 39 16 21 1020.5 1020.6 0.0
24/12:30pm 20.7 13.7 4.3 34 8.0 NNE 30 41 16 22 1021.0 1021.1 0.0
24/12:00pm 20.5 13.2 4.5 35 7.8 NE 32 41 17 22 1021.6 1021.7 0.0
24/11:30am 19.3 12.8 4.6 38 7.1 NE 28 35 15 19 1022.4 1022.6 0.0
24/11:00am 18.2 11.8 5.4 43 6.3 NE 28 35 15 19 1022.9 1023.1 0.0
24/10:30am 16.6 11.5 5.9 49 5.2 NE 22 28 12 15 1023.4 1023.6 0.0
24/10:00am 14.9 10.3 5.7 54 4.4 NE 19 22 10 12 1023.9 1024.0 0.0
24/09:30am 13.7 9.5 5.6 58 3.8 ENE 17 20 9 11 1023.7 1023.8 0.0
24/09:00am 12.5 9.0 5.4 62 3.3 ENE 13 19 7 10 1023.5 1023.7 0.0
24/08:30am 11.1 6.8 5.2 67 2.7 ENE 17 20 9 11 1022.9 1023.1 0.0
24/08:00am 8.8 4.7 4.6 75 1.9 NE 15 17 8 9 1022.6 1022.8 0.0
24/07:30am 7.1 2.8 3.5 78 1.5 ENE 15 17 8 9 1022.2 1022.4 0.0
24/07:00am 7.3 3.5 3.9 79 1.5 E 13 15 7 8 1021.8 1021.9 0.0
24/06:30am 7.8 3.7 4.2 78 1.6 ESE 15 15 8 8 1021.5 1021.6 0.0
24/06:00am 7.6 3.4 3.8 77 1.6 ESE 15 15 8 8 1021.3 1021.4 0.0
24/05:30am 7.8 2.9 4.0 77 1.7 ESE 19 19 10 10 1020.9 1021.0 0.0
24/05:00am 7.4 3.5 3.6 77 1.6 E 13 15 7 8 1020.9 1021.0 0.0
24/04:30am 8.8 5.7 3.8 71 2.2 E 9 11 5 6 1020.9 1021.0 0.0
24/04:00am 9.1 5.8 4.3 72 2.1 ESE 11 11 6 6 1020.7 1020.8 0.0
24/03:30am 9.5 6.6 4.7 72 2.2 ESE 9 11 5 6 1020.6 1020.7 0.0
24/03:00am 9.0 5.6 4.0 71 2.2 ESE 11 11 6 6 1020.8 1020.9 0.0
24/02:30am 9.1 5.8 4.3 72 2.1 E 11 13 6 7 1021.1 1021.2 0.0
24/02:00am 8.8 5.3 3.6 70 2.3 ESE 11 13 6 7 1021.2 1021.3 0.0
24/01:30am 9.7 6.3 4.1 68 2.5 ESE 11 11 6 6 1021.5 1021.6 0.0
24/01:00am 9.6 6.2 3.8 67 2.6 ESE 11 11 6 6 1021.6 1021.7 0.0
24/12:30am 11.3 9.0 5.0 65 2.9 ENE 6 6 3 3 1021.8 1021.9 0.0
24/12:00am 11.5 9.6 4.9 64 3.0 ENE 4 7 2 4 1021.9 1022.1 0.0
 
Date/Time
CST
Temp
°C
App
Temp
°C
Dew
Point
°C
Rel
Hum
%
Delta-T
°C
Wind Press
QNH
hPa
Press
MSL
hPa
Rain since
9am
mm
Dir  Spd
km/h
Gust
km/h
Spd
kts
Gust
kts
23/11:30pm 11.7 10.7 5.6 66 2.8 CALM 0 4 0 2 1022.0 1022.2 0.0
23/11:00pm 12.3 10.0 5.5 63 3.2 N 7 9 4 5 1022.2 1022.4 0.0
23/10:30pm 11.6 8.4 5.0 64 3.0 N 11 13 6 7 1022.4 1022.6 0.0
23/10:00pm 12.3 9.4 4.5 59 3.6 NNW 9 11 5 6 1022.5 1022.7 0.0
23/09:30pm 11.6 9.1 4.6 62 3.2 WNW 7 9 4 5 1022.3 1022.5 0.0
23/09:00pm 13.8 11.6 5.2 56 4.0 S 6 7 3 4 1022.1 1022.3 0.0
23/08:30pm 14.7 13.7 5.8 55 4.3 CALM 0 0 0 0 1021.7 1021.8 0.0
23/08:00pm 14.6 11.9 5.7 55 4.3 SSE 9 11 5 6 1021.7 1021.8 0.0
23/07:30pm 14.2 12.4 5.6 56 4.1 WSW 4 6 2 3 1021.4 1021.5 0.0
23/07:00pm 14.4 12.2 5.5 55 4.2 W 6 6 3 3 1021.1 1021.2 0.0
23/06:30pm 14.9 12.6 4.9 51 4.7 WSW 6 11 3 6 1020.6 1020.7 0.0
23/06:00pm 16.3 12.5 5.6 49 5.2 SW 15 19 8 10 1020.1 1020.2 0.0
23/05:30pm 17.5 12.9 5.4 45 5.9 SW 19 24 10 13 1019.7 1019.8 0.0
23/05:00pm 18.4 13.6 5.6 43 6.3 SSW 20 28 11 15 1019.6 1019.7 0.0
23/04:30pm 19.3 14.4 5.0 39 7.0 SW 20 28 11 15 1019.4 1019.5 0.0
23/04:00pm 19.7 14.9 5.4 39 7.1 SW 20 28 11 15 1019.3 1019.4 0.0
23/03:30pm 20.1 15.1 4.6 36 7.5 SW 20 32 11 17 1019.4 1019.5 0.0
23/03:00pm 20.1 14.3 4.2 35 7.7 SW 24 35 13 19 1019.6 1019.7 0.0
23/02:30pm 20.2 14.4 4.3 35 7.7 WSW 24 35 13 19 1019.6 1019.7 0.0
23/02:00pm 20.3 14.0 3.9 34 7.9 SW 26 35 14 19 1019.8 1019.9 0.0
23/01:30pm 20.2 14.4 4.3 35 7.7 WSW 24 33 13 18 1020.1 1020.2 0.0
23/01:00pm 19.8 14.1 4.7 37 7.4 WSW 24 32 13 17 1020.6 1020.7 0.0
23/12:30pm 19.7 14.8 5.0 38 7.2 SW 20 32 11 17 1021.1 1021.2 0.0
23/12:00pm 19.1 14.3 4.8 39 6.9 WSW 19 26 10 14 1021.5 1021.6 0.0
23/11:30am 18.9 14.5 4.7 39 6.9 WSW 17 26 9 14 1021.9 1022.1 0.0
23/11:00am 18.1 13.6 4.3 40 6.6 WSW 17 24 9 13 1022.1 1022.3 0.0
23/10:30am 17.5 13.4 4.5 42 6.2 WSW 15 20 8 11 1022.1 1022.3 0.0
23/10:00am 16.8 13.9 4.8 45 5.7 WSW 9 13 5 7 1022.0 1022.2 0.0
23/09:30am 14.7 11.3 3.8 48 5.0 WSW 11 13 6 7 1021.8 1021.9 0.0
23/09:00am 11.6 7.9 2.6 54 3.9 WSW 11 13 6 7 1021.4 1021.5 0.0
23/08:30am 10.0 6.6 2.1 58 3.4 WSW 9 11 5 6 1021.3 1021.4 0.0
23/08:00am 9.0 6.0 2.1 62 2.9 W 7 9 4 5 1020.8 1020.9 0.0
23/07:30am 7.8 5.0 2.1 67 2.4 NW 6 7 3 4 1020.5 1020.6 0.0
23/07:00am 8.7 6.0 2.7 66 2.6 WSW 6 7 3 4 1020.1 1020.2 0.0
23/06:30am 8.4 5.1 2.2 65 2.6 WSW 9 9 5 5 1020.0 1020.1 0.0
23/06:00am 8.7 5.4 2.5 65 2.6 SW 9 11 5 6 1019.8 1019.9 0.0
23/05:33am 7.6 3.4 1.5 65 2.5 SW 13 13 7 7 1019.5 1019.6 0.0
23/05:30am 7.7 3.4 1.3 64 2.6 SW 13 13 7 7 1019.4 1019.5 0.0
23/05:17am 7.9 3.7 1.5 64 2.6 SW 13 13 7 7 1019.3 1019.4 0.0
23/05:00am 8.1 4.2 1.0 61 2.9 WSW 11 13 6 7 1019.3 1019.4 0.0
23/04:30am 9.6 6.1 1.5 57 3.4 SW 9 11 5 6 1019.0 1019.1 0.0
23/04:00am 10.3 8.6 1.9 56 3.6 CALM 0 0 0 0 1019.1 1019.2 0.0
23/03:30am 10.5 7.6 1.6 54 3.8 SSW 6 9 3 5 1019.0 1019.1 0.0
23/03:00am 10.1 6.8 0.4 51 4.0 S 7 11 4 6 1018.9 1019.0 0.0
23/02:30am 11.0 6.7 1.3 51 4.1 SSW 13 15 7 8 1018.9 1019.0 0.0
23/02:00am 11.6 7.5 -0.5 43 4.9 SW 11 11 6 6 1018.7 1018.8 0.0
23/01:30am 11.3 6.7 -0.8 43 4.9 WSW 13 13 7 7 1018.7 1018.8 0.0
23/01:00am 12.5 8.7 -0.7 40 5.4 W 9 13 5 7 1018.6 1018.7 0.0
23/12:30am 12.2 7.7 -0.6 41 5.2 WNW 13 17 7 9 1018.5 1018.6 0.0
23/12:03am 11.7 7.5 -0.8 42 5.1 W 11 13 6 7 1018.6 1018.7 0.0
23/12:00am 11.8 7.6 -0.7 42 5.1 W 11 11 6 6 1018.6 1018.7 0.0
 
Date/Time
CST
Temp
°C
App
Temp
°C
Dew
Point
°C
Rel
Hum
%
Delta-T
°C
Wind Press
QNH
hPa
Press
MSL
hPa
Rain since
9am
mm
Dir  Spd
km/h
Gust
km/h
Spd
kts
Gust
kts
22/11:48pm 11.4 6.8 -1.0 42 5.0 W 13 15 7 8 1018.7 1018.8 0.0
22/11:30pm 12.1 6.7 -1.1 40 5.3 W 17 26 9 14 1018.8 1018.9 0.0
22/11:00pm 12.9 6.3 -0.7 39 5.6 N 24 26 13 14 1017.7 1017.8 0.0
22/10:30pm 13.9 8.0 -0.9 36 6.1 N 20 24 11 13 1017.6 1017.7 0.0
22/10:00pm 14.1 7.8 -0.7 36 6.2 N 22 26 12 14 1017.5 1017.6 0.0
22/09:30pm 14.9 8.2 -0.8 34 6.6 N 24 28 13 15 1017.7 1017.8 0.0
22/09:00pm 15.3 9.6 -0.9 33 6.8 N 19 24 10 13 1017.4 1017.5 0.0
22/08:30pm 15.1 9.4 -0.6 34 6.6 N 19 24 10 13 1017.2 1017.4 0.0
22/08:00pm 14.8 9.1 -0.9 34 6.5 NNE 19 20 10 11 1017.0 1017.2 0.0
22/07:30pm 15.4 9.7 -0.8 33 6.8 NNE 19 24 10 13 1016.8 1016.9 0.0
22/07:00pm 15.5 10.6 -0.7 33 6.8 NNE 15 15 8 8 1016.5 1016.6 0.0
22/06:30pm 17.8 11.9 -0.9 28 8.0 NNE 20 26 11 14 1016.1 1016.2 0.0
22/06:00pm 19.6 13.0 -0.4 26 8.8 N 24 32 13 17 1015.8 1015.9 0.0
22/05:30pm 20.8 14.9 -0.5 24 9.4 N 20 26 11 14 1015.8 1015.9 0.0
22/05:00pm 22.0 15.7 -0.7 22 10.1 NNW 22 30 12 16 1015.8 1015.9 0.0
22/04:30pm 22.4 15.0 -1.0 21 10.4 N 28 33 15 18 1015.6 1015.7 0.0
22/04:00pm 22.6 15.2 -0.8 21 10.5 N 28 35 15 19 1015.7 1015.8 0.0
22/03:30pm 22.7 14.3 -1.4 20 10.7 NNW 33 46 18 25 1015.7 1015.8 0.0
22/03:00pm 22.6 14.2 -0.8 21 10.5 N 33 43 18 23 1015.6 1015.7 0.0
22/02:30pm 22.6 14.4 -0.8 21 10.5 N 32 43 17 23 1016.0 1016.1 0.0
22/02:00pm 22.0 13.8 -0.7 22 10.1 NNW 32 44 17 24 1016.7 1016.8 0.0
22/01:30pm 21.3 13.6 -0.1 24 9.6 N 30 39 16 21 1017.2 1017.4 0.0
22/01:00pm 20.5 12.8 -0.2 25 9.2 N 30 37 16 20 1018.0 1018.1 0.0
22/12:30pm 20.2 12.5 -0.4 25 9.1 N 30 41 16 22 1018.7 1018.8 0.0
22/12:08pm 19.4 12.0 -0.6 26 8.8 N 28 46 15 25 1019.3 1019.4 0.0
22/12:00pm 19.4 12.1 -0.1 27 8.6 N 28 39 15 21 1019.5 1019.6 0.0
22/11:30am 18.1 10.8 -0.2 29 8.0 N 28 37 15 20 1019.9 1020.0 0.0
22/11:00am 16.8 8.1 -0.4 31 7.4 N 35 44 19 24 1019.8 1019.9 0.0
22/10:30am 16.1 7.8 -0.2 33 7.0 N 33 43 18 23 1020.2 1020.3 0.0
22/10:00am 14.4 6.3 -0.1 37 6.1 N 32 39 17 21 1020.5 1020.6 0.0
22/09:30am 12.8 5.1 -0.4 40 5.4 N 30 35 16 19 1020.9 1021.0 0.0
22/09:00am 11.5 3.8 -0.3 44 4.8 N 30 39 16 21 1020.6 1020.7 0.0
22/08:30am 10.2 3.6 -0.6 47 4.3 N 24 32 13 17 1020.8 1020.9 0.0
22/08:00am 9.2 2.6 -0.7 50 3.9 NNE 24 30 13 16 1020.7 1020.8 0.0
22/07:30am 8.6 2.3 -0.7 52 3.6 N 22 28 12 15 1020.5 1020.6 0.0
22/07:00am 8.9 2.3 -0.4 52 3.7 N 24 30 13 16 1020.3 1020.4 0.0
22/06:30am 8.8 2.2 -0.5 52 3.7 N 24 32 13 17 1020.0 1020.1 0.0
22/06:00am 9.1 2.5 -0.5 51 3.8 N 24 30 13 16 1019.9 1020.0 0.0
22/05:30am 8.9 2.3 -0.4 52 3.7 N 24 32 13 17 1019.6 1019.7 0.0
22/05:00am 9.0 2.4 -0.3 52 3.7 N 24 30 13 16 1019.5 1019.6 0.0
22/04:30am 9.4 3.2 -0.2 51 3.8 N 22 28 12 15 1019.8 1019.9 0.0
22/04:00am 9.6 3.0 -0.3 50 4.0 N 24 30 13 16 1019.7 1019.8 0.0
22/03:30am 10.1 3.9 -0.1 49 4.1 N 22 30 12 16 1020.0 1020.1 0.0
22/03:00am 9.7 3.8 -0.5 49 4.1 NNE 20 28 11 15 1019.8 1019.9 0.0
22/02:30am 10.0 3.8 -0.5 48 4.2 NNE 22 30 12 16 1019.7 1019.8 0.0
22/02:00am 9.7 2.7 -0.5 49 4.1 NNE 26 32 14 17 1019.8 1019.9 0.0
22/01:30am 8.6 2.9 -0.4 53 3.6 NNE 19 20 10 11 1020.0 1020.1 0.0
22/01:00am 8.7 3.4 -0.3 53 3.6 NNE 17 20 9 11 1020.1 1020.2 0.0
22/12:30am 8.6 4.0 -0.7 52 3.6 NNE 13 17 7 9 1020.3 1020.4 0.0
22/12:00am 10.6 4.8 -0.2 47 4.4 N 20 28 11 15 1020.4 1020.5 0.0
 
Date/Time
CST
Temp
°C
App
Temp
°C
Dew
Point
°C
Rel
Hum
%
Delta-T
°C
Wind Press
QNH
hPa
Press
MSL
hPa
Rain since
9am
mm
Dir  Spd
km/h
Gust
km/h
Spd
kts
Gust
kts
21/11:30pm 10.9 4.7 0.0 47 4.4 N 22 28 12 15 1020.5 1020.6 0.0
21/11:00pm 10.8 5.0 0.0 47 4.4 N 20 26 11 14 1020.6 1020.7 0.0
21/10:30pm 12.4 5.1 -0.1 42 5.2 N 28 35 15 19 1020.3 1020.4 0.0
21/10:00pm 12.2 6.0 0.0 43 5.1 N 22 30 12 16 1020.4 1020.5 0.0
21/09:30pm 11.8 5.6 0.0 44 4.9 NNE 22 26 12 14 1020.2 1020.3 0.0
21/09:00pm 12.6 6.1 0.0 42 5.2 N 24 30 13 16 1020.0 1020.1 0.0
21/08:30pm 12.7 6.6 0.1 42 5.2 NNE 22 24 12 13 1019.9 1020.0 0.0

Other Formats:

Comma delimited format used in spreadsheet applications
http://www.bom.gov.au/fwo/IDS60801/IDS60801.94659.axf

JavaScript Object Notation format (JSON) in row-major order
http://www.bom.gov.au/fwo/IDS60801/IDS60801.94659.json